sensor_id;sensor_type;location;lat;lon;timestamp;pressure;altitude;pressure_sealevel;temperature;humidity
38466;BME280;24244;51.950;5.902;2022-07-17T00:02:09;102639.22;;;16.71;56.30
38466;BME280;24244;51.950;5.902;2022-07-17T00:04:34;102640.06;;;16.72;56.21
38466;BME280;24244;51.950;5.902;2022-07-17T00:07:00;102635.69;;;16.71;56.54
38466;BME280;24244;51.950;5.902;2022-07-17T00:09:25;102636.91;;;16.68;56.61
38466;BME280;24244;51.950;5.902;2022-07-17T00:11:51;102638.94;;;16.66;56.72
38466;BME280;24244;51.950;5.902;2022-07-17T00:14:18;102636.25;;;16.66;56.76
38466;BME280;24244;51.950;5.902;2022-07-17T00:16:43;102631.88;;;16.65;56.68
38466;BME280;24244;51.950;5.902;2022-07-17T00:19:09;102632.06;;;16.64;57.04
38466;BME280;24244;51.950;5.902;2022-07-17T00:21:34;102625.38;;;16.60;57.25
38466;BME280;24244;51.950;5.902;2022-07-17T00:24:00;102629.22;;;16.57;57.24
38466;BME280;24244;51.950;5.902;2022-07-17T00:26:25;102633.97;;;16.55;57.24
38466;BME280;24244;51.950;5.902;2022-07-17T00:28:51;102639.34;;;16.55;57.43
38466;BME280;24244;51.950;5.902;2022-07-17T00:31:18;102630.44;;;16.55;57.30
38466;BME280;24244;51.950;5.902;2022-07-17T00:33:43;102630.78;;;16.52;57.54
38466;BME280;24244;51.950;5.902;2022-07-17T00:36:09;102640.88;;;16.50;57.68
38466;BME280;24244;51.950;5.902;2022-07-17T00:38:35;102635.88;;;16.47;57.77
38466;BME280;24244;51.950;5.902;2022-07-17T00:41:00;102636.03;;;16.45;57.67
38466;BME280;24244;51.950;5.902;2022-07-17T00:43:26;102630.19;;;16.41;57.74
38466;BME280;24244;51.950;5.902;2022-07-17T00:45:57;102634.91;;;16.39;57.95
38466;BME280;24244;51.950;5.902;2022-07-17T00:48:24;102627.88;;;16.38;58.27
38466;BME280;24244;51.950;5.902;2022-07-17T00:50:50;102631.75;;;16.36;58.09
38466;BME280;24244;51.950;5.902;2022-07-17T00:53:18;102629.22;;;16.34;58.35
38466;BME280;24244;51.950;5.902;2022-07-17T00:55:47;102628.75;;;16.31;58.23
38466;BME280;24244;51.950;5.902;2022-07-17T00:58:19;102628.28;;;16.27;58.52
38466;BME280;24244;51.950;5.902;2022-07-17T01:00:45;102631.66;;;16.21;58.63
38466;BME280;24244;51.950;5.902;2022-07-17T01:03:10;102630.84;;;16.21;58.70
38466;BME280;24244;51.950;5.902;2022-07-17T01:05:38;102625.66;;;16.19;58.52
38466;BME280;24244;51.950;5.902;2022-07-17T01:08:03;102623.50;;;16.15;58.51
38466;BME280;24244;51.950;5.902;2022-07-17T01:10:29;102619.34;;;16.12;58.84
38466;BME280;24244;51.950;5.902;2022-07-17T01:12:55;102611.81;;;16.08;58.68
38466;BME280;24244;51.950;5.902;2022-07-17T01:15:20;102610.66;;;16.02;59.09
38466;BME280;24244;51.950;5.902;2022-07-17T01:17:46;102619.44;;;15.96;59.19
38466;BME280;24244;51.950;5.902;2022-07-17T01:20:13;102617.44;;;15.90;59.18
38466;BME280;24244;51.950;5.902;2022-07-17T01:22:44;102608.28;;;15.84;59.77
38466;BME280;24244;51.950;5.902;2022-07-17T01:25:10;102605.25;;;15.79;59.43
38466;BME280;24244;51.950;5.902;2022-07-17T01:27:37;102615.69;;;15.74;60.03
38466;BME280;24244;51.950;5.902;2022-07-17T01:30:07;102621.56;;;15.70;59.73
38466;BME280;24244;51.950;5.902;2022-07-17T01:32:33;102625.59;;;15.65;60.10
38466;BME280;24244;51.950;5.902;2022-07-17T01:34:58;102628.66;;;15.62;60.06
38466;BME280;24244;51.950;5.902;2022-07-17T01:37:24;102624.78;;;15.57;60.45
38466;BME280;24244;51.950;5.902;2022-07-17T01:39:51;102628.66;;;15.54;60.41
38466;BME280;24244;51.950;5.902;2022-07-17T01:42:19;102630.97;;;15.49;60.65
38466;BME280;24244;51.950;5.902;2022-07-17T01:44:46;102633.84;;;15.48;60.85
38466;BME280;24244;51.950;5.902;2022-07-17T01:47:13;102636.53;;;15.48;60.59
38466;BME280;24244;51.950;5.902;2022-07-17T01:49:43;102635.88;;;15.46;60.64
38466;BME280;24244;51.950;5.902;2022-07-17T01:52:08;102641.41;;;15.44;60.78
38466;BME280;24244;51.950;5.902;2022-07-17T01:54:34;102646.75;;;15.44;60.59
38466;BME280;24244;51.950;5.902;2022-07-17T01:57:01;102637.03;;;15.43;60.67
38466;BME280;24244;51.950;5.902;2022-07-17T01:59:27;102630.00;;;15.42;61.12
38466;BME280;24244;51.950;5.902;2022-07-17T02:01:52;102627.31;;;15.42;60.73
38466;BME280;24244;51.950;5.902;2022-07-17T02:04:18;102625.84;;;15.40;60.78
38466;BME280;24244;51.950;5.902;2022-07-17T02:06:43;102633.03;;;15.39;60.89
38466;BME280;24244;51.950;5.902;2022-07-17T02:09:09;102634.88;;;15.39;60.78
38466;BME280;24244;51.950;5.902;2022-07-17T02:11:34;102641.78;;;15.33;60.79
38466;BME280;24244;51.950;5.902;2022-07-17T02:14:02;102636.91;;;15.28;61.07
38466;BME280;24244;51.950;5.902;2022-07-17T02:16:28;102636.44;;;15.25;61.18
38466;BME280;24244;51.950;5.902;2022-07-17T02:18:54;102626.22;;;15.20;61.07
38466;BME280;24244;51.950;5.902;2022-07-17T02:21:19;102623.06;;;15.17;61.18
38466;BME280;24244;51.950;5.902;2022-07-17T02:23:45;102628.72;;;15.14;61.38
38466;BME280;24244;51.950;5.902;2022-07-17T02:26:11;102624.56;;;15.11;61.60
38466;BME280;24244;51.950;5.902;2022-07-17T02:28:36;102620.38;;;15.09;61.76
38466;BME280;24244;51.950;5.902;2022-07-17T02:31:03;102624.59;;;15.03;61.57
38466;BME280;24244;51.950;5.902;2022-07-17T02:33:29;102631.25;;;14.99;61.64
38466;BME280;24244;51.950;5.902;2022-07-17T02:35:54;102629.94;;;14.95;61.55
38466;BME280;24244;51.950;5.902;2022-07-17T02:38:20;102623.91;;;14.93;62.10
38466;BME280;24244;51.950;5.902;2022-07-17T02:40:46;102622.59;;;14.89;62.23
38466;BME280;24244;51.950;5.902;2022-07-17T02:43:11;102626.28;;;14.88;62.26
38466;BME280;24244;51.950;5.902;2022-07-17T02:45:37;102630.94;;;14.86;62.19
38466;BME280;24244;51.950;5.902;2022-07-17T02:48:04;102630.94;;;14.86;62.49
38466;BME280;24244;51.950;5.902;2022-07-17T02:50:30;102638.34;;;14.84;62.41
38466;BME280;24244;51.950;5.902;2022-07-17T02:52:56;102635.31;;;14.79;62.82
38466;BME280;24244;51.950;5.902;2022-07-17T02:55:21;102639.34;;;14.75;63.27
38466;BME280;24244;51.950;5.902;2022-07-17T02:57:48;102636.13;;;14.71;63.21
38466;BME280;24244;51.950;5.902;2022-07-17T03:00:16;102637.34;;;14.69;63.67
38466;BME280;24244;51.950;5.902;2022-07-17T03:02:42;102642.00;;;14.67;63.54
38466;BME280;24244;51.950;5.902;2022-07-17T03:05:09;102640.31;;;14.66;63.68
38466;BME280;24244;51.950;5.902;2022-07-17T03:07:35;102640.84;;;14.61;63.90
38466;BME280;24244;51.950;5.902;2022-07-17T03:10:03;102643.19;;;14.56;63.92
38466;BME280;24244;51.950;5.902;2022-07-17T03:12:28;102640.84;;;14.53;64.22
38466;BME280;24244;51.950;5.902;2022-07-17T03:14:54;102645.34;;;14.53;64.04
38466;BME280;24244;51.950;5.902;2022-07-17T03:17:20;102645.00;;;14.47;64.03
38466;BME280;24244;51.950;5.902;2022-07-17T03:19:48;102640.66;;;14.46;64.26
38466;BME280;24244;51.950;5.902;2022-07-17T03:22:16;102652.38;;;14.45;64.21
38466;BME280;24244;51.950;5.902;2022-07-17T03:24:42;102649.38;;;14.48;64.08
38466;BME280;24244;51.950;5.902;2022-07-17T03:27:07;102657.41;;;14.48;64.13
38466;BME280;24244;51.950;5.902;2022-07-17T03:29:33;102653.34;;;14.44;64.17
38466;BME280;24244;51.950;5.902;2022-07-17T03:31:58;102650.00;;;14.42;64.23
38466;BME280;24244;51.950;5.902;2022-07-17T03:34:24;102643.00;;;14.41;64.26
38466;BME280;24244;51.950;5.902;2022-07-17T03:36:49;102637.66;;;14.41;63.94
38466;BME280;24244;51.950;5.902;2022-07-17T03:39:16;102628.59;;;14.42;64.68
38466;BME280;24244;51.950;5.902;2022-07-17T03:41:42;102622.44;;;14.42;64.45
38466;BME280;24244;51.950;5.902;2022-07-17T03:44:08;102620.75;;;14.41;64.74
38466;BME280;24244;51.950;5.902;2022-07-17T03:46:33;102622.59;;;14.40;64.86
38466;BME280;24244;51.950;5.902;2022-07-17T03:48:59;102627.09;;;14.40;64.70
38466;BME280;24244;51.950;5.902;2022-07-17T03:51:25;102623.75;;;14.38;65.26
38466;BME280;24244;51.950;5.902;2022-07-17T03:53:51;102638.94;;;14.37;65.04
38466;BME280;24244;51.950;5.902;2022-07-17T03:56:18;102633.75;;;14.36;65.47
38466;BME280;24244;51.950;5.902;2022-07-17T03:58:43;102637.25;;;14.36;65.37
38466;BME280;24244;51.950;5.902;2022-07-17T04:01:09;102639.09;;;14.36;65.36
38466;BME280;24244;51.950;5.902;2022-07-17T04:03:35;102632.09;;;14.35;65.46
38466;BME280;24244;51.950;5.902;2022-07-17T04:06:00;102642.97;;;14.33;65.45
38466;BME280;24244;51.950;5.902;2022-07-17T04:08:26;102648.97;;;14.35;65.41
38466;BME280;24244;51.950;5.902;2022-07-17T04:10:51;102651.63;;;14.35;65.50
38466;BME280;24244;51.950;5.902;2022-07-17T04:13:18;102661.69;;;14.33;65.49
38466;BME280;24244;51.950;5.902;2022-07-17T04:15:44;102668.72;;;14.34;65.53
38466;BME280;24244;51.950;5.902;2022-07-17T04:18:18;102673.22;;;14.34;65.95
38466;BME280;24244;51.950;5.902;2022-07-17T04:20:44;102677.56;;;14.35;65.87
38466;BME280;24244;51.950;5.902;2022-07-17T04:23:09;102689.78;;;14.37;65.93
38466;BME280;24244;51.950;5.902;2022-07-17T04:25:36;102693.31;;;14.38;66.00
38466;BME280;24244;51.950;5.902;2022-07-17T04:28:02;102687.81;;;14.39;65.99
38466;BME280;24244;51.950;5.902;2022-07-17T04:30:29;102683.28;;;14.40;65.83
38466;BME280;24244;51.950;5.902;2022-07-17T04:32:54;102682.31;;;14.41;66.09
38466;BME280;24244;51.950;5.902;2022-07-17T04:35:20;102672.25;;;14.43;65.89
38466;BME280;24244;51.950;5.902;2022-07-17T04:37:46;102667.72;;;14.43;66.18
38466;BME280;24244;51.950;5.902;2022-07-17T04:40:12;102676.28;;;14.47;65.73
38466;BME280;24244;51.950;5.902;2022-07-17T04:42:37;102675.09;;;14.49;65.97
38466;BME280;24244;51.950;5.902;2022-07-17T04:45:04;102687.31;;;14.52;65.86
38466;BME280;24244;51.950;5.902;2022-07-17T04:47:31;102679.81;;;14.56;65.89
38466;BME280;24244;51.950;5.902;2022-07-17T04:49:57;102669.59;;;14.59;65.83
38466;BME280;24244;51.950;5.902;2022-07-17T04:52:22;102674.44;;;14.64;65.71
38466;BME280;24244;51.950;5.902;2022-07-17T04:54:49;102669.63;;;14.67;65.59
38466;BME280;24244;51.950;5.902;2022-07-17T04:57:15;102666.78;;;14.69;65.68
38466;BME280;24244;51.950;5.902;2022-07-17T04:59:40;102681.00;;;14.69;65.76
38466;BME280;24244;51.950;5.902;2022-07-17T05:02:06;102675.44;;;14.71;65.74
38466;BME280;24244;51.950;5.902;2022-07-17T05:04:33;102674.13;;;14.75;66.00
38466;BME280;24244;51.950;5.902;2022-07-17T05:06:59;102670.47;;;14.76;65.71
38466;BME280;24244;51.950;5.902;2022-07-17T05:09:25;102674.63;;;14.78;66.00
38466;BME280;24244;51.950;5.902;2022-07-17T05:11:50;102663.59;;;14.81;65.79
38466;BME280;24244;51.950;5.902;2022-07-17T05:14:17;102669.63;;;14.83;65.70
38466;BME280;24244;51.950;5.902;2022-07-17T05:16:43;102664.91;;;14.85;65.93
38466;BME280;24244;51.950;5.902;2022-07-17T05:19:08;102665.75;;;14.86;65.96
38466;BME280;24244;51.950;5.902;2022-07-17T05:21:35;102665.59;;;14.87;66.13
38466;BME280;24244;51.950;5.902;2022-07-17T05:24:01;102664.44;;;14.90;66.08
38466;BME280;24244;51.950;5.902;2022-07-17T05:26:26;102667.75;;;14.92;66.29
38466;BME280;24244;51.950;5.902;2022-07-17T05:28:52;102672.13;;;14.93;66.28
38466;BME280;24244;51.950;5.902;2022-07-17T05:31:18;102675.47;;;14.95;65.97
38466;BME280;24244;51.950;5.902;2022-07-17T05:33:43;102666.09;;;14.99;65.95
38466;BME280;24244;51.950;5.902;2022-07-17T05:36:09;102664.91;;;15.02;66.06
38466;BME280;24244;51.950;5.902;2022-07-17T05:38:36;102668.13;;;15.05;66.16
38466;BME280;24244;51.950;5.902;2022-07-17T05:41:02;102655.19;;;15.09;65.76
38466;BME280;24244;51.950;5.902;2022-07-17T05:43:28;102656.56;;;15.13;65.61
38466;BME280;24244;51.950;5.902;2022-07-17T05:45:54;102659.88;;;15.15;65.46
38466;BME280;24244;51.950;5.902;2022-07-17T05:48:20;102663.06;;;15.18;65.55
38466;BME280;24244;51.950;5.902;2022-07-17T05:50:46;102667.22;;;15.21;65.30
38466;BME280;24244;51.950;5.902;2022-07-17T05:53:12;102677.63;;;15.24;65.30
38466;BME280;24244;51.950;5.902;2022-07-17T05:55:40;102667.38;;;15.27;65.19
38466;BME280;24244;51.950;5.902;2022-07-17T05:58:06;102658.00;;;15.32;65.01
38466;BME280;24244;51.950;5.902;2022-07-17T06:00:32;102660.16;;;15.36;64.93
38466;BME280;24244;51.950;5.902;2022-07-17T06:02:58;102670.56;;;15.39;64.90
38466;BME280;24244;51.950;5.902;2022-07-17T06:05:24;102674.72;;;15.42;64.75
38466;BME280;24244;51.950;5.902;2022-07-17T06:07:51;102674.38;;;15.45;64.80
38466;BME280;24244;51.950;5.902;2022-07-17T06:10:17;102671.38;;;15.48;64.75
38466;BME280;24244;51.950;5.902;2022-07-17T06:12:44;102679.06;;;15.51;64.58
38466;BME280;24244;51.950;5.902;2022-07-17T06:15:10;102682.44;;;15.53;64.58
38466;BME280;24244;51.950;5.902;2022-07-17T06:17:35;102676.75;;;15.56;64.33
38466;BME280;24244;51.950;5.902;2022-07-17T06:20:01;102676.41;;;15.59;64.35
38466;BME280;24244;51.950;5.902;2022-07-17T06:22:27;102670.69;;;15.62;64.40
38466;BME280;24244;51.950;5.902;2022-07-17T06:24:53;102669.34;;;15.66;63.96
38466;BME280;24244;51.950;5.902;2022-07-17T06:27:18;102666.31;;;15.69;63.88
38466;BME280;24244;51.950;5.902;2022-07-17T06:29:45;102671.31;;;15.72;63.63
38466;BME280;24244;51.950;5.902;2022-07-17T06:32:11;102676.34;;;15.75;63.61
38466;BME280;24244;51.950;5.902;2022-07-17T06:34:37;102674.97;;;15.79;63.42
38466;BME280;24244;51.950;5.902;2022-07-17T06:37:03;102667.59;;;15.81;63.17
38466;BME280;24244;51.950;5.902;2022-07-17T06:39:29;102679.63;;;15.85;63.04
38466;BME280;24244;51.950;5.902;2022-07-17T06:41:54;102677.47;;;15.89;63.05
38466;BME280;24244;51.950;5.902;2022-07-17T06:44:20;102676.28;;;15.91;62.90
38466;BME280;24244;51.950;5.902;2022-07-17T06:46:47;102685.81;;;15.94;62.72
38466;BME280;24244;51.950;5.902;2022-07-17T06:49:13;102690.66;;;15.98;62.62
38466;BME280;24244;51.950;5.902;2022-07-17T06:51:38;102696.69;;;16.00;62.69
38466;BME280;24244;51.950;5.902;2022-07-17T06:54:04;102694.66;;;16.02;62.23
38466;BME280;24244;51.950;5.902;2022-07-17T06:56:30;102697.66;;;16.08;62.28
38466;BME280;24244;51.950;5.902;2022-07-17T06:58:56;102704.34;;;16.12;62.10
38466;BME280;24244;51.950;5.902;2022-07-17T07:01:21;102711.03;;;16.16;62.21
38466;BME280;24244;51.950;5.902;2022-07-17T07:03:48;102702.44;;;16.20;61.81
38466;BME280;24244;51.950;5.902;2022-07-17T07:06:14;102693.88;;;16.25;61.92
38466;BME280;24244;51.950;5.902;2022-07-17T07:08:40;102695.19;;;16.29;61.65
38466;BME280;24244;51.950;5.902;2022-07-17T07:11:06;102690.78;;;16.36;61.55
38466;BME280;24244;51.950;5.902;2022-07-17T07:13:31;102694.44;;;16.43;61.60
38466;BME280;24244;51.950;5.902;2022-07-17T07:15:57;102693.72;;;16.49;61.89
38466;BME280;24244;51.950;5.902;2022-07-17T07:18:23;102703.78;;;16.55;61.66
38466;BME280;24244;51.950;5.902;2022-07-17T07:20:50;102713.00;;;16.61;61.64
38466;BME280;24244;51.950;5.902;2022-07-17T07:23:17;102714.13;;;16.66;61.25
38466;BME280;24244;51.950;5.902;2022-07-17T07:25:43;102716.25;;;16.71;60.94
38466;BME280;24244;51.950;5.902;2022-07-17T07:28:09;102720.09;;;16.76;61.22
38466;BME280;24244;51.950;5.902;2022-07-17T07:30:35;102713.50;;;16.79;61.20
38466;BME280;24244;51.950;5.902;2022-07-17T07:33:01;102701.22;;;16.84;60.63
38466;BME280;24244;51.950;5.902;2022-07-17T07:35:27;102716.97;;;16.88;60.64
38466;BME280;24244;51.950;5.902;2022-07-17T07:37:54;102717.09;;;16.94;60.46
38466;BME280;24244;51.950;5.902;2022-07-17T07:40:19;102715.91;;;16.97;60.42
38466;BME280;24244;51.950;5.902;2022-07-17T07:42:45;102721.75;;;17.00;60.32
38466;BME280;24244;51.950;5.902;2022-07-17T07:45:11;102714.81;;;17.06;60.20
38466;BME280;24244;51.950;5.902;2022-07-17T07:47:43;102712.59;;;17.09;60.16
38466;BME280;24244;51.950;5.902;2022-07-17T07:50:10;102708.53;;;17.13;59.75
38466;BME280;24244;51.950;5.902;2022-07-17T07:52:38;102709.84;;;17.17;59.74
38466;BME280;24244;51.950;5.902;2022-07-17T07:55:06;102710.13;;;17.22;59.56
38466;BME280;24244;51.950;5.902;2022-07-17T07:57:31;102706.88;;;17.27;59.48
38466;BME280;24244;51.950;5.902;2022-07-17T07:59:57;102713.41;;;17.33;59.51
38466;BME280;24244;51.950;5.902;2022-07-17T08:02:23;102712.84;;;17.37;59.19
38466;BME280;24244;51.950;5.902;2022-07-17T08:04:48;102709.81;;;17.40;59.21
38466;BME280;24244;51.950;5.902;2022-07-17T08:07:14;102713.78;;;17.44;59.05
38466;BME280;24244;51.950;5.902;2022-07-17T08:09:39;102711.38;;;17.49;58.73
38466;BME280;24244;51.950;5.902;2022-07-17T08:12:06;102712.69;;;17.53;58.87
38466;BME280;24244;51.950;5.902;2022-07-17T08:14:32;102709.09;;;17.61;58.56
38466;BME280;24244;51.950;5.902;2022-07-17T08:16:57;102722.81;;;17.66;57.95
38466;BME280;24244;51.950;5.902;2022-07-17T08:19:23;102714.19;;;17.71;57.68
38466;BME280;24244;51.950;5.902;2022-07-17T08:21:48;102719.88;;;17.76;57.16
38466;BME280;24244;51.950;5.902;2022-07-17T08:24:14;102724.69;;;17.80;56.64
38466;BME280;24244;51.950;5.902;2022-07-17T08:26:40;102717.06;;;17.84;56.58
38466;BME280;24244;51.950;5.902;2022-07-17T08:29:06;102711.97;;;17.89;56.35
38466;BME280;24244;51.950;5.902;2022-07-17T08:31:32;102711.22;;;17.95;56.00
38466;BME280;24244;51.950;5.902;2022-07-17T08:33:58;102711.56;;;18.07;56.05
38466;BME280;24244;51.950;5.902;2022-07-17T08:36:25;102709.66;;;18.36;55.95
38466;BME280;24244;51.950;5.902;2022-07-17T08:38:50;102702.41;;;18.73;55.05
38466;BME280;24244;51.950;5.902;2022-07-17T08:41:16;102705.38;;;19.06;54.33
38466;BME280;24244;51.950;5.902;2022-07-17T08:43:46;102696.47;;;19.33;53.70
38466;BME280;24244;51.950;5.902;2022-07-17T08:46:16;102699.16;;;19.61;52.74
38466;BME280;24244;51.950;5.902;2022-07-17T08:48:45;102702.03;;;19.87;52.25
38466;BME280;24244;51.950;5.902;2022-07-17T08:51:11;102703.97;;;20.07;51.73
38466;BME280;24244;51.950;5.902;2022-07-17T08:53:36;102700.66;;;20.18;50.99
38466;BME280;24244;51.950;5.902;2022-07-17T08:56:02;102701.13;;;20.28;50.85
38466;BME280;24244;51.950;5.902;2022-07-17T08:58:29;102701.19;;;20.41;50.07
38466;BME280;24244;51.950;5.902;2022-07-17T09:00:55;102700.81;;;20.57;49.70
38466;BME280;24244;51.950;5.902;2022-07-17T09:03:21;102701.84;;;20.50;49.07
38466;BME280;24244;51.950;5.902;2022-07-17T09:05:48;102697.44;;;20.36;49.60
38466;BME280;24244;51.950;5.902;2022-07-17T09:08:19;102693.66;;;20.23;50.13
38466;BME280;24244;51.950;5.902;2022-07-17T09:10:47;102699.44;;;20.20;50.46
38466;BME280;24244;51.950;5.902;2022-07-17T09:13:14;102697.38;;;20.16;50.48
38466;BME280;24244;51.950;5.902;2022-07-17T09:15:41;102695.88;;;20.13;50.70
38466;BME280;24244;51.950;5.902;2022-07-17T09:18:06;102697.75;;;20.13;50.84
38466;BME280;24244;51.950;5.902;2022-07-17T09:20:33;102704.00;;;20.13;51.21
38466;BME280;24244;51.950;5.902;2022-07-17T09:22:59;102703.78;;;20.15;51.00
38466;BME280;24244;51.950;5.902;2022-07-17T09:25:33;102706.50;;;20.15;50.72
38466;BME280;24244;51.950;5.902;2022-07-17T09:28:00;102700.25;;;20.14;50.71
38466;BME280;24244;51.950;5.902;2022-07-17T09:30:27;102697.38;;;20.16;50.42
38466;BME280;24244;51.950;5.902;2022-07-17T09:32:55;102694.25;;;20.19;50.42
38466;BME280;24244;51.950;5.902;2022-07-17T09:35:21;102693.66;;;20.23;50.32
38466;BME280;24244;51.950;5.902;2022-07-17T09:37:51;102692.38;;;20.26;49.48
38466;BME280;24244;51.950;5.902;2022-07-17T09:40:17;102685.97;;;20.27;49.29
38466;BME280;24244;51.950;5.902;2022-07-17T09:43:01;102678.91;;;20.32;49.84
38466;BME280;24244;51.950;5.902;2022-07-17T09:45:27;102685.41;;;20.38;49.52
38466;BME280;24244;51.950;5.902;2022-07-17T09:47:53;102679.38;;;20.43;49.68
38466;BME280;24244;51.950;5.902;2022-07-17T09:50:19;102679.19;;;20.51;49.54
38466;BME280;24244;51.950;5.902;2022-07-17T09:52:45;102681.06;;;20.57;49.42
38466;BME280;24244;51.950;5.902;2022-07-17T09:55:12;102682.13;;;20.62;49.25
38466;BME280;24244;51.950;5.902;2022-07-17T09:57:40;102681.53;;;20.67;49.10
38466;BME280;24244;51.950;5.902;2022-07-17T10:00:08;102683.41;;;20.73;49.23
38466;BME280;24244;51.950;5.902;2022-07-17T10:02:39;102686.94;;;20.80;48.81
38466;BME280;24244;51.950;5.902;2022-07-17T10:05:05;102687.56;;;20.89;49.00
38466;BME280;24244;51.950;5.902;2022-07-17T10:07:33;102683.19;;;20.94;48.50
38466;BME280;24244;51.950;5.902;2022-07-17T10:10:00;102682.56;;;20.99;48.24
38466;BME280;24244;51.950;5.902;2022-07-17T10:12:27;102684.44;;;21.05;48.23
38466;BME280;24244;51.950;5.902;2022-07-17T10:14:53;102684.66;;;21.10;48.45
38466;BME280;24244;51.950;5.902;2022-07-17T10:17:20;102683.59;;;21.18;48.39
38466;BME280;24244;51.950;5.902;2022-07-17T10:19:47;102672.81;;;21.24;48.38
38466;BME280;24244;51.950;5.902;2022-07-17T10:22:14;102684.66;;;21.30;48.18
38466;BME280;24244;51.950;5.902;2022-07-17T10:24:49;102677.56;;;21.35;48.16
38466;BME280;24244;51.950;5.902;2022-07-17T10:27:22;102680.47;;;21.40;47.74
38466;BME280;24244;51.950;5.902;2022-07-17T10:30:00;102681.06;;;21.49;47.73
38466;BME280;24244;51.950;5.902;2022-07-17T10:32:26;102679.19;;;21.56;47.68
38466;BME280;24244;51.950;5.902;2022-07-17T10:34:56;102667.28;;;21.64;47.68
38466;BME280;24244;51.950;5.902;2022-07-17T10:37:25;102670.81;;;21.71;47.29
38466;BME280;24244;51.950;5.902;2022-07-17T10:39:57;102674.31;;;21.78;47.13
38466;BME280;24244;51.950;5.902;2022-07-17T10:42:53;102676.78;;;21.86;46.72
38466;BME280;24244;51.950;5.902;2022-07-17T10:45:22;102668.84;;;21.91;46.24
38466;BME280;24244;51.950;5.902;2022-07-17T10:47:52;102674.06;;;21.99;46.13
38466;BME280;24244;51.950;5.902;2022-07-17T10:50:20;102673.41;;;22.04;46.18
38466;BME280;24244;51.950;5.902;2022-07-17T10:52:59;102667.75;;;22.12;46.44
38466;BME280;24244;51.950;5.902;2022-07-17T10:55:25;102667.69;;;22.18;46.25
38466;BME280;24244;51.950;5.902;2022-07-17T10:57:50;102670.38;;;22.25;46.50
38466;BME280;24244;51.950;5.902;2022-07-17T11:00:17;102670.34;;;22.32;46.68
38466;BME280;24244;51.950;5.902;2022-07-17T11:02:45;102674.91;;;22.38;46.25
38466;BME280;24244;51.950;5.902;2022-07-17T11:05:13;102681.91;;;22.45;46.06
38466;BME280;24244;51.950;5.902;2022-07-17T11:07:51;102676.25;;;22.53;45.96
38466;BME280;24244;51.950;5.902;2022-07-17T11:10:17;102679.72;;;22.60;45.99
38466;BME280;24244;51.950;5.902;2022-07-17T11:12:46;102678.63;;;22.68;45.92
38466;BME280;24244;51.950;5.902;2022-07-17T11:15:12;102672.38;;;22.74;45.58
38466;BME280;24244;51.950;5.902;2022-07-17T11:17:48;102674.59;;;22.84;45.00
38466;BME280;24244;51.950;5.902;2022-07-17T11:20:17;102678.91;;;22.91;44.79
38466;BME280;24244;51.950;5.902;2022-07-17T11:22:43;102672.59;;;22.97;44.81
38466;BME280;24244;51.950;5.902;2022-07-17T11:25:09;102667.94;;;23.04;44.71
38466;BME280;24244;51.950;5.902;2022-07-17T11:27:37;102654.53;;;23.10;44.45
38466;BME280;24244;51.950;5.902;2022-07-17T11:30:04;102662.84;;;23.15;44.48
38466;BME280;24244;51.950;5.902;2022-07-17T11:32:37;102656.53;;;23.21;43.92
38466;BME280;24244;51.950;5.902;2022-07-17T11:35:16;102657.50;;;23.26;44.17
38466;BME280;24244;51.950;5.902;2022-07-17T11:37:42;102661.81;;;23.34;43.85
38466;BME280;24244;51.950;5.902;2022-07-17T11:40:08;102661.97;;;23.39;43.14
38466;BME280;24244;51.950;5.902;2022-07-17T11:42:35;102657.75;;;23.43;43.10
38466;BME280;24244;51.950;5.902;2022-07-17T11:45:01;102659.59;;;23.49;43.60
38466;BME280;24244;51.950;5.902;2022-07-17T11:47:27;102647.59;;;23.57;43.80
38466;BME280;24244;51.950;5.902;2022-07-17T11:50:04;102641.88;;;23.65;43.66
38466;BME280;24244;51.950;5.902;2022-07-17T11:52:40;102638.84;;;23.73;43.97
38466;BME280;24244;51.950;5.902;2022-07-17T11:55:06;102640.41;;;23.80;43.40
38466;BME280;24244;51.950;5.902;2022-07-17T11:57:42;102635.13;;;23.86;43.39
38466;BME280;24244;51.950;5.902;2022-07-17T12:00:09;102641.31;;;23.93;43.44
38466;BME280;24244;51.950;5.902;2022-07-17T12:02:35;102637.44;;;24.00;43.81
38466;BME280;24244;51.950;5.902;2022-07-17T12:05:01;102641.72;;;24.08;43.46
38466;BME280;24244;51.950;5.902;2022-07-17T12:07:41;102642.00;;;24.18;43.14
38466;BME280;24244;51.950;5.902;2022-07-17T12:10:11;102631.88;;;24.25;42.62
38466;BME280;24244;51.950;5.902;2022-07-17T12:12:37;102635.31;;;24.32;42.58
38466;BME280;24244;51.950;5.902;2022-07-17T12:15:04;102635.94;;;24.34;42.08
38466;BME280;24244;51.950;5.902;2022-07-17T12:17:37;102637.38;;;24.37;41.95
38466;BME280;24244;51.950;5.902;2022-07-17T12:20:04;102635.22;;;24.39;42.21
38466;BME280;24244;51.950;5.902;2022-07-17T12:22:30;102640.81;;;24.44;42.32
38466;BME280;24244;51.950;5.902;2022-07-17T12:24:57;102632.56;;;24.50;42.13
38466;BME280;24244;51.950;5.902;2022-07-17T12:27:23;102627.59;;;24.59;42.12
38466;BME280;24244;51.950;5.902;2022-07-17T12:29:49;102623.69;;;24.67;42.09
38466;BME280;24244;51.950;5.902;2022-07-17T12:32:16;102633.41;;;24.74;41.62
38466;BME280;24244;51.950;5.902;2022-07-17T12:34:43;102634.13;;;24.81;41.41
38466;BME280;24244;51.950;5.902;2022-07-17T12:37:12;102628.13;;;24.91;41.87
38466;BME280;24244;51.950;5.902;2022-07-17T12:39:37;102625.88;;;25.00;41.61
38466;BME280;24244;51.950;5.902;2022-07-17T12:42:04;102617.59;;;25.06;41.54
38466;BME280;24244;51.950;5.902;2022-07-17T12:44:30;102620.44;;;25.11;41.33
38466;BME280;24244;51.950;5.902;2022-07-17T12:46:56;102618.88;;;25.15;41.29
38466;BME280;24244;51.950;5.902;2022-07-17T12:49:22;102624.22;;;25.22;41.45